In Rescue
 
Open Full Screen Window  High Contrast Mode
Wind Gusting 19 knots
12
May 13, 2021 11:24 AM CDT
Weather Information
Wind Direction
  200 °
Wind Speed
  12 kt (14 mph)
Wind Gust
  19 kt (22 mph)
Altimeter
30.32 in
Visibility
10 SM
Temperature
18° C
64° F
Dewpoint
-03° C
27° F
Humidity
24%
1hr Rain Fall
00.00 in.
24hr Rain Fall
00.00 in.
Sky Condition
Clear
VFR

METAR KULM 131624Z AUTO 20012G19KT 10SM CLR 18/M03 A3032 RMK AO2

FAA Disclaimer: The data displayed is for advisory purposes only and is not to be used for flight planning or operations.